createdAt,value
2017-07-02T00:00:38.685Z,84.04
2017-07-02T00:01:40.578Z,83.94
2017-07-02T00:02:42.445Z,83.65
2017-07-02T00:03:44.318Z,83.85
2017-07-02T00:04:58.465Z,83.85
2017-07-02T00:06:00.273Z,83.75
2017-07-02T00:07:02.076Z,83.56
2017-07-02T00:08:03.907Z,84.23
2017-07-02T00:09:05.716Z,84.42
2017-07-02T00:10:07.608Z,84.14
2017-07-02T00:11:09.509Z,84.61
2017-07-02T00:12:11.379Z,84.58
2017-07-02T00:13:13.189Z,85.15
2017-07-02T00:14:27.361Z,85.10
2017-07-02T00:15:29.248Z,85.19
2017-07-02T00:16:31.115Z,84.81
2017-07-02T00:17:32.987Z,85.00
2017-07-02T00:18:34.820Z,84.81
2017-07-02T00:19:36.654Z,85.25
2017-07-02T00:20:38.548Z,85.92
2017-07-02T00:21:40.439Z,86.49
2017-07-02T00:22:42.327Z,87.16
2017-07-02T00:23:56.471Z,87.16
2017-07-02T00:24:58.337Z,87.45
2017-07-02T00:26:00.230Z,88.51
2017-07-02T00:27:02.122Z,88.65
2017-07-02T00:28:03.929Z,89.71
2017-07-02T00:29:05.762Z,89.71
2017-07-02T00:30:07.656Z,90.76
2017-07-02T00:31:09.558Z,91.72
2017-07-02T00:32:11.448Z,93.83
2017-07-02T00:33:25.614Z,94.40
2017-07-02T00:34:27.483Z,94.35
2017-07-02T00:35:29.345Z,94.64
2017-07-02T00:36:31.212Z,95.70
2017-07-02T00:37:33.020Z,95.60
2017-07-02T00:38:34.851Z,95.22
2017-07-02T00:39:36.743Z,95.51
2017-07-02T00:40:38.609Z,95.22
2017-07-02T00:41:40.476Z,94.07
2017-07-02T00:42:54.643Z,92.54
2017-07-02T00:43:56.539Z,92.73
2017-07-02T00:44:58.428Z,92.73
2017-07-02T00:46:00.293Z,93.02
2017-07-02T00:47:02.125Z,93.59
2017-07-02T00:48:03.954Z,94.17
2017-07-02T00:49:05.849Z,92.82
2017-07-02T00:50:07.716Z,93.30
2017-07-02T00:51:09.581Z,92.73
2017-07-02T00:52:23.754Z,92.92
2017-07-02T00:53:25.649Z,93.40
2017-07-02T00:54:27.519Z,92.92
2017-07-02T00:55:29.413Z,93.49
2017-07-02T00:56:31.222Z,93.78
2017-07-02T00:57:33.051Z,93.78
2017-07-02T00:58:34.918Z,93.59
2017-07-02T00:59:36.815Z,93.69
2017-07-02T01:00:38.707Z,92.92
2017-07-02T01:01:52.873Z,93.02
2017-07-02T01:02:54.742Z,93.54
2017-07-02T01:03:56.609Z,93.98
2017-07-02T01:04:58.476Z,93.21
2017-07-02T01:06:00.310Z,93.59
2017-07-02T01:07:02.139Z,93.30
2017-07-02T01:08:04.031Z,92.82
2017-07-02T01:09:05.926Z,92.35
2017-07-02T01:10:07.794Z,91.86
2017-07-02T01:11:21.962Z,92.25
2017-07-02T01:12:23.855Z,92.15
2017-07-02T01:13:25.716Z,92.15
2017-07-02T01:14:27.591Z,91.96
2017-07-02T01:15:29.422Z,91.58
2017-07-02T01:16:31.254Z,91.34
2017-07-02T01:17:33.146Z,91.58
2017-07-02T01:18:35.037Z,91.63
2017-07-02T01:19:36.905Z,91.05
2017-07-02T01:20:51.074Z,91.14
2017-07-02T01:21:52.936Z,91.05
2017-07-02T01:22:54.804Z,90.47
2017-07-02T01:23:56.674Z,90.95
2017-07-02T01:24:58.480Z,90.67
2017-07-02T01:26:00.309Z,90.95
2017-07-02T01:27:02.202Z,91.19
2017-07-02T01:28:04.095Z,91.72
2017-07-02T01:29:05.962Z,91.91
2017-07-02T01:30:20.132Z,92.01
2017-07-02T01:31:21.996Z,91.72
2017-07-02T01:32:23.888Z,91.53
2017-07-02T01:33:25.760Z,91.00
2017-07-02T01:34:27.568Z,91.77
2017-07-02T01:35:29.398Z,91.19
2017-07-02T01:36:31.287Z,90.95
2017-07-02T01:37:33.176Z,91.14
2017-07-02T01:38:35.067Z,91.05
2017-07-02T01:39:49.203Z,93.06
2017-07-02T01:40:51.072Z,94.26
2017-07-02T01:41:52.976Z,94.93
2017-07-02T01:42:54.861Z,95.22
2017-07-02T01:43:56.690Z,95.89
2017-07-02T01:44:58.492Z,96.27
2017-07-02T01:46:00.363Z,96.37
2017-07-02T01:47:02.250Z,96.56
2017-07-02T01:48:04.118Z,96.42
2017-07-02T01:49:18.262Z,96.32
2017-07-02T01:50:20.149Z,96.61
2017-07-02T01:51:22.038Z,96.70
2017-07-02T01:52:23.902Z,96.89
2017-07-02T01:53:25.705Z,96.08
2017-07-02T01:54:27.512Z,97.09
2017-07-02T01:55:29.403Z,97.04
2017-07-02T01:56:31.291Z,97.09
2017-07-02T01:57:33.186Z,97.04
2017-07-02T01:58:47.351Z,96.75
2017-07-02T01:59:49.221Z,96.37
2017-07-02T02:00:51.117Z,96.56
2017-07-02T02:01:52.980Z,96.66
2017-07-02T02:02:54.814Z,96.66
2017-07-02T02:03:56.614Z,96.84
2017-07-02T02:04:58.482Z,96.84
2017-07-02T02:06:00.372Z,96.56
2017-07-02T02:07:02.233Z,96.66
2017-07-02T02:08:16.374Z,96.66
2017-07-02T02:09:18.265Z,96.18
2017-07-02T02:10:20.154Z,96.08
2017-07-02T02:11:22.236Z,96.37
2017-07-02T02:12:24.238Z,95.98
2017-07-02T02:13:26.071Z,96.18
2017-07-02T02:14:27.961Z,95.89
2017-07-02T02:15:29.858Z,96.56
2017-07-02T02:16:31.742Z,96.56
2017-07-02T02:17:45.882Z,96.37
2017-07-02T02:18:47.750Z,96.08
2017-07-02T02:19:49.643Z,96.75
2017-07-02T02:20:51.534Z,96.94
2017-07-02T02:21:53.362Z,96.37
2017-07-02T02:22:55.171Z,97.13
2017-07-02T02:23:57.053Z,97.42
2017-07-02T02:24:58.923Z,97.23
2017-07-02T02:26:00.788Z,97.33
2017-07-02T02:27:14.953Z,97.61
2017-07-02T02:28:16.819Z,96.94
2017-07-02T02:29:18.716Z,96.94
2017-07-02T02:30:20.612Z,96.94
2017-07-02T02:31:22.444Z,97.23
2017-07-02T02:32:24.274Z,96.56
2017-07-02T02:33:26.137Z,97.04
2017-07-02T02:34:28.006Z,97.61
2017-07-02T02:35:29.901Z,97.71
2017-07-02T02:36:44.092Z,97.42
2017-07-02T02:37:45.979Z,98.09
2017-07-02T02:38:47.875Z,97.80
2017-07-02T02:39:49.760Z,98.09
2017-07-02T02:40:51.565Z,98.57
2017-07-02T02:41:53.398Z,97.80
2017-07-02T02:42:55.285Z,97.90
2017-07-02T02:43:57.156Z,97.23
2017-07-02T02:44:59.022Z,97.42
2017-07-02T02:46:13.190Z,97.61
2017-07-02T02:47:15.075Z,97.71
2017-07-02T02:48:16.946Z,97.71
2017-07-02T02:49:18.843Z,96.75
2017-07-02T02:50:20.671Z,97.04
2017-07-02T02:51:22.506Z,97.90
2017-07-02T02:52:24.377Z,97.90
2017-07-02T02:53:26.267Z,97.52
2017-07-02T02:54:28.155Z,96.56
2017-07-02T02:55:42.302Z,96.66
2017-07-02T02:56:44.165Z,96.66
2017-07-02T02:57:46.033Z,96.56
2017-07-02T02:58:47.900Z,96.56
2017-07-02T02:59:49.733Z,96.66
2017-07-02T03:00:51.565Z,95.98
2017-07-02T03:01:53.450Z,96.66
2017-07-02T03:02:55.316Z,96.56
2017-07-02T03:03:57.183Z,96.47
2017-07-02T03:05:11.327Z,96.47
2017-07-02T03:06:13.197Z,96.47
2017-07-02T03:07:15.093Z,96.66
2017-07-02T03:08:16.967Z,96.75
2017-07-02T03:09:18.800Z,96.75
2017-07-02T03:10:20.635Z,97.04
2017-07-02T03:11:22.506Z,97.13
2017-07-02T03:12:24.377Z,96.37
2017-07-02T03:13:26.247Z,97.04
2017-07-02T03:14:40.441Z,97.04
2017-07-02T03:15:42.335Z,96.94
2017-07-02T03:16:44.208Z,97.42
2017-07-02T03:17:46.073Z,96.75
2017-07-02T03:18:47.881Z,96.66
2017-07-02T03:19:49.712Z,96.66
2017-07-02T03:20:51.607Z,96.75
2017-07-02T03:21:53.499Z,97.04
2017-07-02T03:22:55.394Z,96.66
2017-07-02T03:24:09.561Z,96.22
2017-07-02T03:25:11.453Z,96.61
2017-07-02T03:26:13.329Z,95.75
2017-07-02T03:27:15.202Z,95.84
2017-07-02T03:28:17.034Z,95.98
2017-07-02T03:29:18.846Z,95.75
2017-07-02T03:30:20.730Z,95.65
2017-07-02T03:31:22.608Z,95.46
2017-07-02T03:32:24.504Z,95.75
2017-07-02T03:33:38.648Z,95.75
2017-07-02T03:34:40.538Z,95.70
2017-07-02T03:35:42.434Z,95.75
2017-07-02T03:36:44.331Z,95.94
2017-07-02T03:37:46.134Z,96.18
2017-07-02T03:38:47.970Z,95.27
2017-07-02T03:39:49.865Z,95.84
2017-07-02T03:40:51.755Z,95.46
2017-07-02T03:41:53.628Z,95.46
2017-07-02T03:43:07.794Z,95.56
2017-07-02T03:44:09.661Z,95.56
2017-07-02T03:45:11.530Z,95.17
2017-07-02T03:46:13.397Z,95.84
2017-07-02T03:47:15.206Z,95.07
2017-07-02T03:48:17.014Z,95.27
2017-07-02T03:49:18.887Z,95.17
2017-07-02T03:50:20.785Z,95.07
2017-07-02T03:51:22.684Z,94.98
2017-07-02T03:52:36.829Z,94.69
2017-07-02T03:53:38.693Z,94.64
2017-07-02T03:54:40.568Z,94.21
2017-07-02T03:55:42.465Z,94.02
2017-07-02T03:56:44.272Z,93.88
2017-07-02T03:57:46.106Z,94.07
2017-07-02T03:58:47.977Z,93.98
2017-07-02T03:59:49.854Z,93.88
2017-07-02T04:00:51.725Z,94.26
2017-07-02T04:02:05.897Z,93.40
2017-07-02T04:03:07.770Z,93.69
2017-07-02T04:04:09.675Z,93.59
2017-07-02T04:05:11.548Z,93.11
2017-07-02T04:06:13.382Z,92.92
2017-07-02T04:07:15.216Z,93.11
2017-07-02T04:08:17.111Z,93.21
2017-07-02T04:09:18.987Z,93.21
2017-07-02T04:10:20.864Z,93.21
2017-07-02T04:11:35.050Z,92.73
2017-07-02T04:12:36.907Z,93.02
2017-07-02T04:13:38.779Z,92.63
2017-07-02T04:14:40.682Z,92.92
2017-07-02T04:15:42.516Z,93.02
2017-07-02T04:16:44.352Z,92.82
2017-07-02T04:17:46.253Z,92.92
2017-07-02T04:18:48.149Z,92.82
2017-07-02T04:19:50.029Z,93.11
2017-07-02T04:21:04.201Z,92.44
2017-07-02T04:22:06.100Z,92.06
2017-07-02T04:23:07.975Z,92.15
2017-07-02T04:24:09.850Z,92.63
2017-07-02T04:25:11.687Z,92.44
2017-07-02T04:26:13.524Z,92.15
2017-07-02T04:27:15.422Z,92.15
2017-07-02T04:28:17.320Z,92.54
2017-07-02T04:29:19.192Z,92.63
2017-07-02T04:30:33.390Z,92.63
2017-07-02T04:31:35.257Z,92.73
2017-07-02T04:32:37.137Z,92.44
2017-07-02T04:33:39.037Z,92.54
2017-07-02T04:34:40.870Z,92.35
2017-07-02T04:35:42.705Z,91.67
2017-07-02T04:36:44.606Z,92.54
2017-07-02T04:37:46.505Z,92.63
2017-07-02T04:38:48.405Z,92.73
2017-07-02T04:40:02.549Z,91.96
2017-07-02T04:41:04.446Z,91.96
2017-07-02T04:42:06.346Z,92.06
2017-07-02T04:43:08.249Z,92.20
2017-07-02T04:44:10.080Z,91.86
2017-07-02T04:45:11.888Z,91.67
2017-07-02T04:46:13.766Z,91.91
2017-07-02T04:47:15.663Z,92.15
2017-07-02T04:48:17.540Z,91.67
2017-07-02T04:49:31.688Z,91.67
2017-07-02T04:50:33.556Z,92.30
2017-07-02T04:51:35.433Z,92.35
2017-07-02T04:52:37.333Z,92.10
2017-07-02T04:53:39.163Z,91.96
2017-07-02T04:54:40.977Z,91.58
2017-07-02T04:55:42.874Z,91.82
2017-07-02T04:56:44.747Z,91.67
2017-07-02T04:57:46.619Z,91.77
2017-07-02T04:59:00.770Z,91.58
2017-07-02T05:00:02.667Z,91.77
2017-07-02T05:01:04.567Z,91.53
2017-07-02T05:02:06.464Z,91.82
2017-07-02T05:03:08.278Z,91.72
2017-07-02T05:04:10.111Z,91.53
2017-07-02T05:05:11.986Z,91.24
2017-07-02T05:06:13.890Z,90.76
2017-07-02T05:07:15.788Z,90.76
2017-07-02T05:08:29.934Z,90.57
2017-07-02T05:09:31.812Z,90.95
2017-07-02T05:10:33.711Z,90.76
2017-07-02T05:11:35.591Z,90.86
2017-07-02T05:12:37.421Z,91.24
2017-07-02T05:13:39.237Z,91.14
2017-07-02T05:14:41.107Z,91.24
2017-07-02T05:15:42.992Z,91.14
2017-07-02T05:16:44.890Z,91.24
2017-07-02T05:17:59.062Z,91.05
2017-07-02T05:19:00.942Z,91.05
2017-07-02T05:20:02.839Z,90.57
2017-07-02T05:21:04.742Z,90.76
2017-07-02T05:22:06.573Z,90.67
2017-07-02T05:23:08.386Z,90.57
2017-07-02T05:24:10.268Z,90.57
2017-07-02T05:25:12.167Z,90.86
2017-07-02T05:26:14.067Z,90.76
2017-07-02T05:27:28.214Z,90.28
2017-07-02T05:28:30.114Z,90.00
2017-07-02T05:29:31.994Z,89.90
2017-07-02T05:30:33.866Z,89.65
2017-07-02T05:31:35.699Z,89.94
2017-07-02T05:32:37.508Z,89.80
2017-07-02T05:33:39.382Z,89.90
2017-07-02T05:34:41.263Z,89.90
2017-07-02T05:35:43.161Z,90.04
2017-07-02T05:36:57.312Z,89.56
2017-07-02T05:37:59.185Z,90.42
2017-07-02T05:39:01.065Z,90.00
2017-07-02T05:40:02.941Z,90.09
2017-07-02T05:41:04.757Z,90.23
2017-07-02T05:42:06.594Z,90.42
2017-07-02T05:43:08.467Z,90.23
2017-07-02T05:44:10.367Z,90.81
2017-07-02T05:45:12.243Z,90.71
2017-07-02T05:46:26.417Z,90.76
2017-07-02T05:47:28.315Z,91.34
2017-07-02T05:48:30.213Z,91.53
2017-07-02T05:49:32.097Z,91.57
2017-07-02T05:50:33.905Z,92.05
2017-07-02T05:51:35.742Z,91.82
2017-07-02T05:52:37.614Z,91.91
2017-07-02T05:53:39.517Z,92.10
2017-07-02T05:54:41.392Z,91.91
2017-07-02T05:55:55.546Z,91.28
2017-07-02T05:56:57.464Z,91.67
2017-07-02T05:57:59.338Z,91.72
2017-07-02T05:59:01.216Z,92.10
2017-07-02T06:00:03.051Z,91.72
2017-07-02T06:01:04.885Z,91.43
2017-07-02T06:02:06.689Z,91.82
2017-07-02T06:03:08.505Z,92.20
2017-07-02T06:04:10.319Z,92.10
2017-07-02T06:05:24.489Z,91.82
2017-07-02T06:06:26.390Z,92.10
2017-07-02T06:07:28.302Z,91.53
2017-07-02T06:08:30.204Z,91.91
2017-07-02T06:09:32.013Z,92.30
2017-07-02T06:10:33.828Z,92.10
2017-07-02T06:11:35.725Z,92.01
2017-07-02T06:12:37.609Z,91.63
2017-07-02T06:13:39.502Z,91.72
2017-07-02T06:14:53.655Z,91.82
2017-07-02T06:15:55.547Z,91.82
2017-07-02T06:16:57.457Z,91.63
2017-07-02T06:17:59.364Z,91.53
2017-07-02T06:19:01.199Z,91.05
2017-07-02T06:20:03.010Z,91.24
2017-07-02T06:21:04.887Z,90.52
2017-07-02T06:22:06.775Z,90.81
2017-07-02T06:23:08.678Z,90.81
2017-07-02T06:24:22.843Z,90.52
2017-07-02T06:25:24.715Z,90.04
2017-07-02T06:26:26.598Z,90.33
2017-07-02T06:27:28.496Z,90.71
2017-07-02T06:28:30.309Z,90.61
2017-07-02T06:29:32.117Z,90.61
2017-07-02T06:30:34.013Z,89.56
2017-07-02T06:31:35.893Z,89.56
2017-07-02T06:32:37.793Z,89.37
2017-07-02T06:33:51.964Z,89.65
2017-07-02T06:34:53.835Z,90.04
2017-07-02T06:35:55.714Z,89.65
2017-07-02T06:36:57.610Z,89.56
2017-07-02T06:37:59.423Z,89.56
2017-07-02T06:39:01.232Z,88.98
2017-07-02T06:40:03.105Z,89.47
2017-07-02T06:41:04.986Z,89.12
2017-07-02T06:42:06.883Z,89.08
2017-07-02T06:43:21.030Z,89.27
2017-07-02T06:44:22.906Z,88.79
2017-07-02T06:45:24.777Z,89.75
2017-07-02T06:46:26.651Z,89.37
2017-07-02T06:47:28.462Z,89.75
2017-07-02T06:48:30.302Z,89.08
2017-07-02T06:49:32.173Z,88.70
2017-07-02T06:50:34.052Z,89.18
2017-07-02T06:51:35.924Z,88.98
2017-07-02T06:52:50.088Z,89.75
2017-07-02T06:53:51.952Z,89.75
2017-07-02T06:54:53.851Z,89.65
2017-07-02T06:55:55.753Z,89.65
2017-07-02T06:56:57.562Z,89.56
2017-07-02T06:57:59.372Z,89.56
2017-07-02T06:59:01.274Z,89.75
2017-07-02T07:00:03.172Z,90.38
2017-07-02T07:01:05.044Z,90.57
2017-07-02T07:02:19.240Z,90.76
2017-07-02T07:03:21.115Z,90.76
2017-07-02T07:04:23.017Z,90.95
2017-07-02T07:05:24.918Z,91.24
2017-07-02T07:06:26.725Z,91.24
2017-07-02T07:07:28.540Z,91.53
2017-07-02T07:08:30.469Z,91.14
2017-07-02T07:09:32.336Z,91.05
2017-07-02T07:10:34.239Z,90.57
2017-07-02T07:11:48.433Z,91.14
2017-07-02T07:12:50.305Z,91.34
2017-07-02T07:13:52.183Z,91.82
2017-07-02T07:14:54.082Z,91.91
2017-07-02T07:15:55.895Z,91.53
2017-07-02T07:16:57.732Z,91.72
2017-07-02T07:17:59.609Z,91.05
2017-07-02T07:19:01.508Z,91.63
2017-07-02T07:20:03.387Z,91.91
2017-07-02T07:21:17.558Z,91.72
2017-07-02T07:22:19.461Z,91.63
2017-07-02T07:23:21.361Z,92.10
2017-07-02T07:24:23.241Z,92.30
2017-07-02T07:25:25.074Z,93.11
2017-07-02T07:26:26.887Z,93.16
2017-07-02T07:27:28.782Z,92.97
2017-07-02T07:28:30.677Z,92.73
2017-07-02T07:29:32.572Z,93.06
2017-07-02T07:30:46.721Z,93.16
2017-07-02T07:31:48.617Z,92.30
2017-07-02T07:32:50.500Z,92.77
2017-07-02T07:33:52.406Z,91.82
2017-07-02T07:34:54.268Z,91.86
2017-07-02T07:35:56.102Z,91.00
2017-07-02T07:36:57.978Z,90.23
2017-07-02T07:37:59.882Z,89.61
2017-07-02T07:39:01.790Z,87.98
2017-07-02T07:40:16.010Z,87.15
2017-07-02T07:41:17.914Z,86.68
2017-07-02T07:42:19.824Z,85.75
2017-07-02T07:43:21.728Z,84.89
2017-07-02T07:44:23.542Z,83.87
2017-07-02T07:45:25.383Z,82.53
2017-07-02T07:46:27.283Z,81.86
2017-07-02T07:47:29.192Z,81.48
2017-07-02T07:48:31.091Z,81.19
2017-07-02T07:49:45.246Z,80.80
2017-07-02T07:50:47.122Z,79.75
2017-07-02T07:51:48.999Z,79.17
2017-07-02T07:52:50.903Z,79.65
2017-07-02T07:53:52.737Z,79.69
2017-07-02T07:54:54.555Z,79.40
2017-07-02T07:55:56.443Z,78.78
2017-07-02T07:56:58.332Z,79.11
2017-07-02T07:58:00.231Z,78.92
2017-07-02T07:59:14.383Z,78.63
2017-07-02T08:00:16.286Z,78.77
2017-07-02T08:01:18.197Z,77.26
2017-07-02T08:02:20.102Z,75.98
2017-07-02T08:03:21.940Z,75.49
2017-07-02T08:04:23.753Z,75.49
2017-07-02T08:05:25.634Z,76.07
2017-07-02T08:06:27.512Z,75.21
2017-07-02T08:07:29.417Z,75.21
2017-07-02T08:08:43.585Z,75.59
2017-07-02T08:09:45.465Z,75.49
2017-07-02T08:10:47.368Z,75.65
2017-07-02T08:11:49.283Z,75.75
2017-07-02T08:12:51.085Z,75.56
2017-07-02T08:13:52.922Z,75.27
2017-07-02T08:14:54.804Z,74.98
2017-07-02T08:15:56.683Z,75.07
2017-07-02T08:16:58.587Z,74.21
2017-07-02T08:18:12.740Z,74.30
2017-07-02T08:19:14.646Z,74.50
2017-07-02T08:20:16.555Z,74.88
2017-07-02T08:21:18.466Z,74.82
2017-07-02T08:22:20.304Z,74.92
2017-07-02T08:23:22.121Z,74.25
2017-07-02T08:24:24.008Z,73.19
2017-07-02T08:25:25.888Z,72.86
2017-07-02T08:26:27.769Z,72.48
2017-07-02T08:27:41.992Z,72.54
2017-07-02T08:28:43.912Z,72.83
2017-07-02T08:29:45.857Z,72.92
2017-07-02T08:30:47.880Z,72.92
2017-07-02T08:31:49.849Z,73.66
2017-07-02T08:32:51.673Z,74.33
2017-07-02T08:33:53.635Z,74.43
2017-07-02T08:34:55.539Z,74.90
2017-07-02T08:35:57.417Z,75.00
2017-07-02T08:37:11.615Z,74.62
2017-07-02T08:38:13.523Z,74.43
2017-07-02T08:39:15.511Z,74.13
2017-07-02T08:40:17.421Z,74.52
2017-07-02T08:41:19.317Z,75.96
2017-07-02T08:42:21.213Z,75.96
2017-07-02T08:43:23.163Z,76.06
2017-07-02T08:44:25.125Z,75.52
2017-07-02T08:45:27.212Z,75.13
2017-07-02T08:46:41.469Z,72.64
2017-07-02T08:47:43.364Z,71.58
2017-07-02T08:48:45.248Z,72.60
2017-07-02T08:49:47.153Z,73.56
2017-07-02T08:50:48.981Z,73.85
2017-07-02T08:51:50.850Z,73.69
2017-07-02T08:52:52.814Z,73.21
2017-07-02T08:53:54.770Z,72.83
2017-07-02T08:54:56.730Z,73.69
2017-07-02T08:56:10.974Z,73.11
2017-07-02T08:57:12.889Z,73.50
2017-07-02T08:58:14.819Z,73.31
2017-07-02T08:59:16.935Z,72.73
2017-07-02T09:00:18.822Z,72.34
2017-07-02T09:01:20.661Z,72.44
2017-07-02T09:02:22.563Z,72.16
2017-07-02T09:03:24.466Z,71.64
2017-07-02T09:04:26.344Z,71.64
2017-07-02T09:05:40.522Z,71.73
2017-07-02T09:06:42.507Z,71.55
2017-07-02T09:07:44.393Z,71.55
2017-07-02T09:08:46.393Z,71.48
2017-07-02T09:09:48.298Z,70.81
2017-07-02T09:10:50.246Z,71.29
2017-07-02T09:11:52.137Z,70.75
2017-07-02T09:12:54.045Z,70.75
2017-07-02T09:13:55.935Z,70.65
2017-07-02T09:15:10.239Z,69.79
2017-07-02T09:16:12.280Z,69.98
2017-07-02T09:17:14.388Z,71.61
2017-07-02T09:18:16.448Z,69.98
2017-07-02T09:19:18.364Z,70.88
2017-07-02T09:20:20.279Z,71.40
2017-07-02T09:21:22.204Z,70.43
2017-07-02T09:22:24.111Z,69.70
2017-07-02T09:23:26.021Z,69.67
2017-07-02T09:24:40.248Z,68.16
2017-07-02T09:25:42.195Z,67.65
2017-07-02T09:26:44.105Z,67.55
2017-07-02T09:27:45.990Z,68.22
2017-07-02T09:28:47.797Z,69.67
2017-07-02T09:29:49.633Z,68.41
2017-07-02T09:30:51.531Z,66.27
2017-07-02T09:31:53.409Z,66.17
2017-07-02T09:32:55.283Z,66.36
2017-07-02T09:34:09.483Z,67.03
2017-07-02T09:35:11.354Z,67.32
2017-07-02T09:36:13.247Z,65.97
2017-07-02T09:37:15.124Z,66.04
2017-07-02T09:38:16.941Z,66.71
2017-07-02T09:39:18.775Z,66.84
2017-07-02T09:40:20.670Z,67.32
2017-07-02T09:41:22.557Z,67.32
2017-07-02T09:42:24.462Z,66.94
2017-07-02T09:43:38.635Z,66.55
2017-07-02T09:44:40.532Z,66.33
2017-07-02T09:45:42.416Z,65.27
2017-07-02T09:46:44.287Z,64.98
2017-07-02T09:47:46.102Z,64.02
2017-07-02T09:48:47.937Z,64.50
2017-07-02T09:49:49.839Z,64.73
2017-07-02T09:50:51.718Z,64.15
2017-07-02T09:51:53.618Z,64.63
2017-07-02T09:53:07.796Z,65.20
2017-07-02T09:54:09.693Z,65.20
2017-07-02T09:55:11.591Z,65.53
2017-07-02T09:56:13.456Z,65.72
2017-07-02T09:57:15.291Z,65.14
2017-07-02T09:58:17.101Z,64.28
2017-07-02T09:59:19.295Z,63.79
2017-07-02T10:00:21.229Z,63.89
2017-07-02T10:01:23.133Z,63.79
2017-07-02T10:02:37.305Z,64.82
2017-07-02T10:03:39.182Z,65.40
2017-07-02T10:04:41.055Z,64.73
2017-07-02T10:05:42.957Z,64.25
2017-07-02T10:06:44.793Z,64.82
2017-07-02T10:07:46.603Z,64.82
2017-07-02T10:08:48.504Z,64.60
2017-07-02T10:09:50.406Z,63.64
2017-07-02T10:10:52.310Z,64.50
2017-07-02T10:12:06.482Z,64.31
2017-07-02T10:13:08.379Z,64.79
2017-07-02T10:14:10.258Z,65.27
2017-07-02T10:15:12.171Z,65.46
2017-07-02T10:16:14.011Z,65.56
2017-07-02T10:17:15.848Z,64.89
2017-07-02T10:18:17.724Z,65.27
2017-07-02T10:19:19.601Z,66.04
2017-07-02T10:20:21.505Z,66.14
2017-07-02T10:21:35.676Z,65.75
2017-07-02T10:22:37.554Z,65.46
2017-07-02T10:23:39.452Z,66.71
2017-07-02T10:24:41.329Z,66.71
2017-07-02T10:25:43.162Z,66.36
2017-07-02T10:26:44.976Z,66.07
2017-07-02T10:27:46.853Z,65.78
2017-07-02T10:28:48.747Z,65.59
2017-07-02T10:29:50.620Z,65.91
2017-07-02T10:31:04.769Z,65.72
2017-07-02T10:32:06.644Z,65.53
2017-07-02T10:33:08.548Z,65.24
2017-07-02T10:34:10.450Z,64.76
2017-07-02T10:35:12.287Z,64.15
2017-07-02T10:36:14.096Z,64.15
2017-07-02T10:37:15.971Z,64.73
2017-07-02T10:38:17.850Z,65.30
2017-07-02T10:39:19.752Z,65.11
2017-07-02T10:40:33.901Z,65.30
2017-07-02T10:41:35.800Z,65.53
2017-07-02T10:42:37.678Z,65.14
2017-07-02T10:43:39.565Z,65.14
2017-07-02T10:44:41.383Z,65.72
2017-07-02T10:45:43.231Z,66.30
2017-07-02T10:46:45.125Z,64.79
2017-07-02T10:47:46.997Z,63.25
2017-07-02T10:48:48.874Z,63.41
2017-07-02T10:50:03.030Z,64.40
2017-07-02T10:51:04.903Z,63.44
2017-07-02T10:52:06.778Z,62.96
2017-07-02T10:53:08.685Z,62.93
2017-07-02T10:54:10.517Z,63.51
2017-07-02T10:55:12.331Z,62.83
2017-07-02T10:56:14.202Z,63.79
2017-07-02T10:57:16.075Z,64.56
2017-07-02T10:58:17.958Z,64.86
2017-07-02T10:59:32.155Z,65.27
2017-07-02T11:00:34.050Z,64.59
2017-07-02T11:01:35.933Z,63.34
2017-07-02T11:02:37.837Z,63.85
2017-07-02T11:03:39.674Z,62.99
2017-07-02T11:04:41.525Z,61.93
2017-07-02T11:05:43.426Z,61.07
2017-07-02T11:06:45.306Z,59.17
2017-07-02T11:07:47.189Z,58.97
2017-07-02T11:09:01.370Z,59.36
2017-07-02T11:10:03.246Z,58.81
2017-07-02T11:11:05.151Z,59.10
2017-07-02T11:12:07.061Z,59.32
2017-07-02T11:13:08.899Z,57.97
2017-07-02T11:14:10.733Z,57.52
2017-07-02T11:15:12.616Z,55.49
2017-07-02T11:16:14.496Z,55.76
2017-07-02T11:17:16.374Z,56.65
2017-07-02T11:18:30.525Z,56.65
2017-07-02T11:19:32.402Z,55.78
2017-07-02T11:20:34.313Z,55.20
2017-07-02T11:21:36.214Z,54.72
2017-07-02T11:22:38.054Z,55.01
2017-07-02T11:23:39.874Z,54.53
2017-07-02T11:24:41.778Z,55.10
2017-07-02T11:25:43.685Z,55.20
2017-07-02T11:26:45.591Z,55.01
2017-07-02T11:27:59.737Z,55.01
2017-07-02T11:29:01.616Z,56.00
2017-07-02T11:30:03.498Z,54.75
2017-07-02T11:31:05.382Z,54.00
2017-07-02T11:32:07.200Z,54.29
2017-07-02T11:33:09.040Z,53.81
2017-07-02T11:34:10.920Z,53.81
2017-07-02T11:35:12.824Z,52.07
2017-07-02T11:36:14.698Z,52.23
2017-07-02T11:37:28.849Z,54.33
2017-07-02T11:38:30.727Z,54.33
2017-07-02T11:39:32.610Z,54.24
2017-07-02T11:40:34.490Z,53.95
2017-07-02T11:41:36.423Z,55.10
2017-07-02T11:42:38.297Z,55.10
2017-07-02T11:43:40.304Z,55.40
2017-07-02T11:44:42.256Z,54.24
2017-07-02T11:45:44.163Z,54.24
2017-07-02T11:46:58.407Z,54.72
2017-07-02T11:48:00.307Z,54.24
2017-07-02T11:49:02.205Z,53.66
2017-07-02T11:50:04.147Z,53.56
2017-07-02T11:51:06.039Z,54.27
2017-07-02T11:52:07.884Z,52.84
2017-07-02T11:53:09.798Z,52.94
2017-07-02T11:54:11.755Z,51.68
2017-07-02T11:55:13.773Z,52.36
2017-07-02T11:56:28.046Z,51.78
2017-07-02T11:57:29.970Z,51.81
2017-07-02T11:58:31.918Z,50.81
2017-07-02T11:59:33.794Z,51.49
2017-07-02T12:00:35.622Z,52.17
2017-07-02T12:01:37.423Z,51.97
2017-07-02T12:02:39.302Z,51.95
2017-07-02T12:03:41.189Z,52.81
2017-07-02T12:04:43.095Z,53.69
2017-07-02T12:05:57.272Z,52.36
2017-07-02T12:06:59.179Z,51.68
2017-07-02T12:08:01.093Z,52.17
2017-07-02T12:09:02.997Z,51.59
2017-07-02T12:10:04.841Z,51.39
2017-07-02T12:11:06.682Z,50.91
2017-07-02T12:12:08.563Z,51.49
2017-07-02T12:13:10.467Z,51.71
2017-07-02T12:14:12.380Z,51.61
2017-07-02T12:15:26.500Z,50.67
2017-07-02T12:16:28.380Z,50.84
2017-07-02T12:17:30.280Z,51.71
2017-07-02T12:18:32.190Z,50.26
2017-07-02T12:19:34.035Z,50.45
2017-07-02T12:20:35.871Z,50.07
2017-07-02T12:21:37.749Z,50.55
2017-07-02T12:22:39.634Z,50.67
2017-07-02T12:23:41.563Z,49.90
2017-07-02T12:24:55.887Z,48.16
2017-07-02T12:25:57.902Z,48.08
2017-07-02T12:26:59.844Z,48.54
2017-07-02T12:28:01.846Z,48.64
2017-07-02T12:29:03.721Z,49.02
2017-07-02T12:30:05.541Z,48.95
2017-07-02T12:31:07.423Z,49.90
2017-07-02T12:32:09.413Z,49.39
2017-07-02T12:33:11.407Z,49.97
2017-07-02T12:34:25.707Z,50.07
2017-07-02T12:35:27.682Z,50.26
2017-07-02T12:36:29.693Z,50.45
2017-07-02T12:37:31.706Z,50.55
2017-07-02T12:38:33.565Z,50.45
2017-07-02T12:39:35.489Z,49.39
2017-07-02T12:40:37.478Z,50.07
2017-07-02T12:41:39.414Z,50.43
2017-07-02T12:42:41.328Z,50.04
2017-07-02T12:43:55.702Z,50.04
2017-07-02T12:44:57.726Z,50.04
2017-07-02T12:45:59.711Z,49.95
2017-07-02T12:47:01.592Z,49.95
2017-07-02T12:48:03.428Z,50.52
2017-07-02T12:49:05.251Z,50.71
2017-07-02T12:50:07.130Z,51.07
2017-07-02T12:51:09.010Z,50.43
2017-07-02T12:52:10.896Z,50.79
2017-07-02T12:53:25.068Z,50.79
2017-07-02T12:54:27.058Z,50.79
2017-07-02T12:55:28.952Z,50.57
2017-07-02T12:56:30.849Z,51.53
2017-07-02T12:57:32.675Z,51.63
2017-07-02T12:58:34.507Z,52.01
2017-07-02T12:59:36.399Z,52.89
2017-07-02T13:00:38.268Z,52.69
2017-07-02T13:01:40.174Z,52.69
2017-07-02T13:02:54.398Z,52.98
2017-07-02T13:03:56.273Z,52.98
2017-07-02T13:04:58.149Z,53.08
2017-07-02T13:06:00.060Z,53.83
2017-07-02T13:07:01.899Z,53.73
2017-07-02T13:08:03.723Z,54.11
2017-07-02T13:09:05.628Z,53.63
2017-07-02T13:10:07.536Z,53.47
2017-07-02T13:11:09.440Z,53.85
2017-07-02T13:12:23.617Z,53.66
2017-07-02T13:13:25.527Z,53.88
2017-07-02T13:14:27.435Z,53.39
2017-07-02T13:15:29.345Z,52.84
2017-07-02T13:16:31.186Z,52.36
2017-07-02T13:17:33.006Z,52.36
2017-07-02T13:18:34.909Z,51.68
2017-07-02T13:19:36.786Z,51.03
2017-07-02T13:20:38.689Z,50.93
2017-07-02T13:21:52.868Z,50.62
2017-07-02T13:22:54.745Z,50.62
2017-07-02T13:23:56.624Z,50.91
2017-07-02T13:24:58.511Z,51.78
2017-07-02T13:26:00.347Z,51.39
2017-07-02T13:27:02.163Z,51.59
2017-07-02T13:28:04.045Z,51.59
2017-07-02T13:29:05.927Z,51.49
2017-07-02T13:30:07.832Z,51.68
2017-07-02T13:31:22.009Z,52.26
2017-07-02T13:32:23.888Z,52.55
2017-07-02T13:33:25.792Z,51.68
2017-07-02T13:34:27.671Z,51.81